Huvudsida
METAR-TAF:

METAR-TAF

Flygplatser :

Stornoway Airport

Stornoway, Skottland

latitud: 58-13N, longitud: 006-19W, höjd: 9 m

Aktuellt väderrapport

Denna rapport gjordes för 15 minuter sedan, klockan 22:20 UTC
Vind 22 kt från sydväst i byarna ända upp till 33 kt
Temperatur 10°C
Fuktighet 82%
Tryck 1034 hPa
Sikt 10 km eller mer

METAR: EGPO 192220Z AUTO 22022G33KT 9999 SCT016/// BKN020/// BKN025/// 10/07 Q1034

Tid: 22:35 (22:35 UTC)

Väderprognos

Denna rapport gjordes för 2 timmar och 40 minuter sedan, klockan 19:55 UTC
Prognos gäller från 19 kl. 21 UTC till 20 kl. 06 UTC
Vind 22 kt från sydväst i byarna ända upp till 32 kt
Sikt 10 km eller mer
Brutna moln på en höjd av 2000 ft
Temporärt
från 19 kl. 21 UTC till 20 kl. 06 UTC
Sikt: 7000 m
Brutna moln på en höjd av 1000 ft
lätt regn
Sannolikhet 30% :
Temporärt
från 20 kl. 00 UTC till 20 kl. 06 UTC
Brutna moln på en höjd av 600 ft

TAF: EGPO 191955Z 1921/2006 22022G32KT 9999 BKN020 TEMPO 1921/2006 7000 -RA BKN010 PROB30 TEMPO 2000/2006 BKN006

Aktuella väderrapporter och prognoser från 4000 flygplatser (METAR- och TAF-rapporter).

De tillgängliga stationerna syns som gula och röda prickar på kartan.

För musen över prickarna för att se namnen på stationerna.

Klicka sedan för att få väderrapporter och prognoser.

För att ändra kartan: Klicka på de gröna knapparna med ett svart kors på för att zooma in; den gröna knappen med ett streck på för att zooma ut; eller på de gröna pilarna för angränsande kartor.


METAR-TAF: